createdAt,value
2023-05-17T00:00:58.060Z,12.50
2023-05-17T00:03:24.845Z,12.50
2023-05-17T00:05:51.818Z,12.50
2023-05-17T00:08:18.592Z,12.40
2023-05-17T00:10:45.493Z,12.50
2023-05-17T00:13:12.354Z,12.40
2023-05-17T00:15:39.232Z,12.50
2023-05-17T00:18:06.199Z,12.50
2023-05-17T00:20:33.129Z,12.50
2023-05-17T00:23:00.838Z,12.50
2023-05-17T00:25:27.900Z,12.50
2023-05-17T00:27:54.877Z,12.70
2023-05-17T00:30:21.717Z,12.60
2023-05-17T00:32:48.714Z,12.60
2023-05-17T00:35:15.809Z,12.60
2023-05-17T00:37:47.902Z,12.60
2023-05-17T00:40:16.341Z,12.60
2023-05-17T00:42:43.223Z,12.60
2023-05-17T00:45:10.941Z,12.60
2023-05-17T00:47:37.834Z,12.60
2023-05-17T00:50:06.350Z,12.60
2023-05-17T00:52:33.358Z,12.60
2023-05-17T00:55:00.136Z,12.60
2023-05-17T00:57:29.146Z,12.50
2023-05-17T00:59:56.401Z,12.50
2023-05-17T01:02:23.692Z,12.50
2023-05-17T01:04:50.992Z,12.50
2023-05-17T01:07:18.003Z,12.50
2023-05-17T01:09:45.494Z,12.50
2023-05-17T01:12:32.680Z,12.60
2023-05-17T01:15:08.502Z,12.60
2023-05-17T01:17:56.537Z,12.60
2023-05-17T01:20:28.397Z,12.60
2023-05-17T01:23:10.178Z,12.60
2023-05-17T01:26:08.220Z,12.60
2023-05-17T01:28:38.479Z,12.60
2023-05-17T01:31:05.883Z,12.50
2023-05-17T01:33:33.473Z,12.50
2023-05-17T01:36:00.218Z,12.60
2023-05-17T01:38:26.967Z,12.50
2023-05-17T01:41:04.529Z,12.50
2023-05-17T01:43:59.331Z,12.50
2023-05-17T01:46:32.271Z,12.50
2023-05-17T01:49:26.042Z,12.50
2023-05-17T01:52:23.834Z,12.50
2023-05-17T01:54:58.646Z,12.50
2023-05-17T01:57:29.702Z,12.40
2023-05-17T02:00:00.461Z,12.50
2023-05-17T02:02:27.331Z,12.40
2023-05-17T02:04:54.870Z,12.40
2023-05-17T02:07:21.831Z,12.40
2023-05-17T02:09:48.638Z,12.50
2023-05-17T02:12:15.993Z,12.50
2023-05-17T02:14:42.876Z,12.40
2023-05-17T02:17:09.930Z,12.40
2023-05-17T02:19:36.870Z,12.50
2023-05-17T02:22:03.731Z,12.40
2023-05-17T02:24:30.731Z,12.40
2023-05-17T02:26:57.518Z,12.40
2023-05-17T02:29:24.446Z,12.40
2023-05-17T02:31:51.219Z,12.40
2023-05-17T02:34:18.010Z,12.40
2023-05-17T02:36:44.929Z,12.40
2023-05-17T02:39:11.885Z,12.40
2023-05-17T02:41:38.820Z,12.50
2023-05-17T02:44:05.720Z,12.40
2023-05-17T02:46:32.601Z,12.40
2023-05-17T02:48:59.529Z,12.40
2023-05-17T02:51:26.296Z,12.50
2023-05-17T02:53:53.215Z,12.40
2023-05-17T02:56:20.064Z,12.40
2023-05-17T02:58:46.879Z,12.40
2023-05-17T03:01:13.852Z,12.30
2023-05-17T03:03:40.942Z,12.40
2023-05-17T03:06:08.111Z,12.30
2023-05-17T03:08:35.026Z,12.30
2023-05-17T03:11:01.887Z,12.40
2023-05-17T03:13:28.759Z,12.40
2023-05-17T03:15:55.620Z,12.40
2023-05-17T03:18:22.702Z,12.40
2023-05-17T03:20:49.545Z,12.40
2023-05-17T03:23:16.305Z,12.40
2023-05-17T03:25:43.092Z,12.40
2023-05-17T03:28:10.044Z,12.50
2023-05-17T03:30:37.050Z,12.40
2023-05-17T03:33:03.945Z,12.40
2023-05-17T03:35:31.050Z,12.40
2023-05-17T03:37:58.014Z,12.40
2023-05-17T03:40:24.784Z,12.40
2023-05-17T03:42:51.913Z,12.40
2023-05-17T03:45:18.730Z,12.30
2023-05-17T03:47:45.497Z,12.30
2023-05-17T03:50:12.556Z,12.30
2023-05-17T03:52:42.085Z,12.30
2023-05-17T03:55:09.603Z,12.30
2023-05-17T03:57:36.346Z,12.30
2023-05-17T04:00:06.817Z,12.40
2023-05-17T04:02:33.670Z,12.30
2023-05-17T04:05:00.736Z,12.40
2023-05-17T04:07:27.699Z,12.30
2023-05-17T04:09:59.353Z,12.30
2023-05-17T04:12:26.433Z,12.30
2023-05-17T04:14:53.224Z,12.30
2023-05-17T04:17:20.102Z,12.30
2023-05-17T04:19:46.978Z,12.30
2023-05-17T04:22:13.912Z,12.30
2023-05-17T04:24:40.817Z,12.30
2023-05-17T04:27:08.096Z,12.30
2023-05-17T04:29:34.962Z,12.40
2023-05-17T04:32:01.722Z,12.30
2023-05-17T04:34:28.666Z,12.30
2023-05-17T04:36:55.393Z,12.30
2023-05-17T04:39:22.337Z,12.30
2023-05-17T04:41:49.743Z,12.30
2023-05-17T04:44:17.232Z,12.30
2023-05-17T04:46:44.095Z,12.40
2023-05-17T04:49:11.122Z,12.30
2023-05-17T04:51:40.541Z,12.30
2023-05-17T04:54:08.710Z,12.30
2023-05-17T04:56:39.200Z,12.40
2023-05-17T04:59:06.454Z,12.40
2023-05-17T05:01:35.282Z,12.40
2023-05-17T05:04:07.130Z,12.40
2023-05-17T05:06:34.727Z,12.40
2023-05-17T05:09:02.012Z,12.40
2023-05-17T05:11:28.924Z,12.40
2023-05-17T05:13:56.098Z,12.30
2023-05-17T05:16:25.057Z,12.30
2023-05-17T05:18:52.066Z,12.30
2023-05-17T05:21:19.249Z,12.30
2023-05-17T05:23:46.442Z,12.30
2023-05-17T05:26:13.258Z,12.30
2023-05-17T05:28:40.501Z,12.30
2023-05-17T05:31:07.658Z,12.30
2023-05-17T05:33:34.742Z,12.30
2023-05-17T05:36:01.621Z,12.40
2023-05-17T05:38:28.731Z,12.40
2023-05-17T05:40:55.532Z,12.40
2023-05-17T05:43:22.327Z,12.30
2023-05-17T05:45:49.468Z,12.40
2023-05-17T05:48:16.709Z,12.40
2023-05-17T05:50:44.669Z,12.30
2023-05-17T05:53:18.870Z,12.40
2023-05-17T05:55:47.118Z,12.40
2023-05-17T05:58:15.979Z,12.40
2023-05-17T06:00:42.788Z,12.40
2023-05-17T06:03:12.895Z,12.40
2023-05-17T06:05:40.610Z,12.40
2023-05-17T06:08:07.639Z,12.40
2023-05-17T06:10:35.031Z,12.40
2023-05-17T06:13:01.953Z,12.40
2023-05-17T06:15:29.181Z,12.40
2023-05-17T06:17:56.181Z,12.40
2023-05-17T06:20:23.606Z,12.40
2023-05-17T06:22:50.473Z,12.40
2023-05-17T06:25:17.663Z,12.40
2023-05-17T06:27:44.785Z,12.40
2023-05-17T06:30:13.017Z,12.40
2023-05-17T06:32:40.282Z,12.40
2023-05-17T06:35:08.398Z,12.40
2023-05-17T06:37:35.353Z,12.40
2023-05-17T06:40:14.874Z,12.40
2023-05-17T06:42:43.013Z,12.40
2023-05-17T06:45:10.726Z,12.40
2023-05-17T06:47:37.839Z,12.40
2023-05-17T06:50:05.150Z,12.50
2023-05-17T06:52:32.141Z,12.50
2023-05-17T06:55:01.417Z,12.50
2023-05-17T06:57:28.268Z,12.50
2023-05-17T06:59:56.815Z,12.50
2023-05-17T07:02:23.787Z,12.50
2023-05-17T07:04:50.971Z,12.50
2023-05-17T07:07:18.029Z,12.60
2023-05-17T07:09:45.024Z,12.50
2023-05-17T07:12:14.429Z,12.50
2023-05-17T07:14:41.859Z,12.50
2023-05-17T07:17:11.488Z,12.50
2023-05-17T07:19:38.504Z,12.60
2023-05-17T07:22:06.899Z,12.60
2023-05-17T07:24:35.413Z,12.60
2023-05-17T07:27:02.606Z,12.60
2023-05-17T07:29:29.846Z,12.60
2023-05-17T07:31:58.928Z,12.60
2023-05-17T07:34:26.015Z,12.60
2023-05-17T07:36:55.298Z,12.70
2023-05-17T07:39:22.042Z,12.70
2023-05-17T07:41:48.963Z,12.70
2023-05-17T07:44:16.112Z,12.70
2023-05-17T07:46:42.942Z,12.70
2023-05-17T07:49:10.390Z,12.70
2023-05-17T07:51:37.307Z,12.70
2023-05-17T07:54:04.464Z,12.70
2023-05-17T07:56:31.796Z,12.70
2023-05-17T07:58:58.649Z,12.70
2023-05-17T08:01:25.799Z,12.80
2023-05-17T08:03:52.551Z,12.70
2023-05-17T08:06:19.457Z,12.70
2023-05-17T08:08:46.466Z,12.70
2023-05-17T08:11:16.960Z,12.70
2023-05-17T08:13:47.088Z,12.70
2023-05-17T08:16:20.258Z,12.80
2023-05-17T08:18:48.589Z,12.80
2023-05-17T08:21:15.821Z,12.80
2023-05-17T08:23:44.289Z,12.80
2023-05-17T08:26:13.257Z,12.80
2023-05-17T08:28:40.322Z,12.80
2023-05-17T08:31:07.790Z,12.70
2023-05-17T08:33:37.464Z,12.80
2023-05-17T08:36:08.132Z,12.70
2023-05-17T08:38:35.650Z,12.70
2023-05-17T08:41:03.170Z,12.80
2023-05-17T08:43:31.482Z,12.70
2023-05-17T08:45:59.284Z,12.80
2023-05-17T08:48:27.762Z,12.80
2023-05-17T08:50:55.960Z,12.70
2023-05-17T08:53:23.629Z,12.80
2023-05-17T08:55:51.564Z,12.80
2023-05-17T08:58:25.790Z,12.80
2023-05-17T09:00:54.410Z,12.80
2023-05-17T09:03:22.797Z,12.80
2023-05-17T09:05:53.874Z,12.80
2023-05-17T09:08:23.178Z,12.80
2023-05-17T09:10:50.674Z,12.80
2023-05-17T09:13:17.738Z,12.80
2023-05-17T09:15:47.667Z,12.80
2023-05-17T09:18:16.296Z,12.90
2023-05-17T09:20:51.787Z,12.90
2023-05-17T09:23:21.404Z,12.80
2023-05-17T09:25:49.141Z,12.80
2023-05-17T09:28:18.832Z,12.90
2023-05-17T09:30:48.520Z,12.90
2023-05-17T09:33:18.494Z,12.80
2023-05-17T09:35:45.746Z,12.80
2023-05-17T09:38:14.029Z,12.80
2023-05-17T09:40:45.188Z,12.70
2023-05-17T09:43:13.263Z,12.80
2023-05-17T09:45:40.458Z,12.70
2023-05-17T09:48:15.916Z,12.70
2023-05-17T09:50:51.766Z,12.70
2023-05-17T09:53:32.777Z,12.70
2023-05-17T09:56:05.582Z,12.70
2023-05-17T09:58:33.658Z,12.70
2023-05-17T10:01:07.265Z,12.70
2023-05-17T10:03:38.889Z,12.70
2023-05-17T10:06:13.249Z,12.70
2023-05-17T10:08:47.503Z,12.70
2023-05-17T10:11:14.491Z,12.70
2023-05-17T10:13:58.683Z,12.70
2023-05-17T10:16:26.591Z,12.70
2023-05-17T10:18:54.075Z,12.70
2023-05-17T10:21:22.868Z,12.70
2023-05-17T10:23:54.261Z,12.70
2023-05-17T10:26:22.222Z,12.70
2023-05-17T10:28:52.263Z,12.60
2023-05-17T10:31:20.515Z,12.60
2023-05-17T10:33:50.487Z,12.70
2023-05-17T10:36:18.197Z,12.60
2023-05-17T10:38:46.092Z,12.60
2023-05-17T10:41:14.210Z,12.60
2023-05-17T10:43:43.107Z,12.60
2023-05-17T10:46:16.385Z,12.60
2023-05-17T10:48:44.468Z,12.60
2023-05-17T10:51:12.018Z,12.60
2023-05-17T10:54:03.862Z,12.60
2023-05-17T10:56:32.270Z,12.60
2023-05-17T10:59:25.017Z,12.60
2023-05-17T11:01:53.753Z,12.50
2023-05-17T11:04:35.346Z,12.50
2023-05-17T11:07:27.530Z,12.40
2023-05-17T11:09:59.962Z,12.50
2023-05-17T11:12:43.333Z,12.50
2023-05-17T11:15:24.147Z,12.40
2023-05-17T11:17:56.966Z,12.50
2023-05-17T11:20:27.734Z,12.40
2023-05-17T11:23:16.494Z,12.50
2023-05-17T11:25:43.784Z,12.40
2023-05-17T11:28:19.417Z,12.40
2023-05-17T11:30:54.055Z,12.40
2023-05-17T11:33:37.537Z,12.40
2023-05-17T11:36:13.463Z,12.40
2023-05-17T11:38:41.218Z,12.40
2023-05-17T11:43:49.614Z,12.40
2023-05-17T11:46:21.743Z,12.40
2023-05-17T11:48:51.242Z,12.40
2023-05-17T11:51:21.239Z,12.40
2023-05-17T11:53:50.146Z,12.40
2023-05-17T11:56:19.260Z,12.40
2023-05-17T11:58:52.831Z,12.50
2023-05-17T12:01:19.756Z,12.50
2023-05-17T12:03:47.584Z,12.50
2023-05-17T12:06:18.123Z,12.40
2023-05-17T12:08:46.323Z,12.50
2023-05-17T12:11:15.548Z,12.40
2023-05-17T12:13:42.774Z,12.40
2023-05-17T12:16:17.790Z,12.40
2023-05-17T12:18:48.516Z,12.30
2023-05-17T12:21:15.724Z,12.30
2023-05-17T12:23:44.825Z,12.30
2023-05-17T12:26:18.807Z,12.30
2023-05-17T12:28:53.377Z,12.30
2023-05-17T12:31:25.222Z,12.30
2023-05-17T12:33:52.535Z,12.20
2023-05-17T12:36:20.054Z,12.10
2023-05-17T12:38:47.586Z,12.10
2023-05-17T12:41:16.524Z,12.10
2023-05-17T12:43:45.364Z,12.00
2023-05-17T12:46:13.775Z,12.00
2023-05-17T12:48:42.212Z,12.10
2023-05-17T12:51:13.046Z,12.00
2023-05-17T12:53:43.817Z,12.00
2023-05-17T12:56:24.841Z,11.90
2023-05-17T12:59:10.609Z,11.90
2023-05-17T13:01:44.802Z,11.80
2023-05-17T13:04:12.917Z,11.70
2023-05-17T13:06:50.073Z,11.70
2023-05-17T13:09:18.821Z,11.70
2023-05-17T13:11:56.417Z,11.70
2023-05-17T13:14:35.198Z,11.60
2023-05-17T13:17:06.637Z,11.50
2023-05-17T13:19:35.253Z,11.50
2023-05-17T13:22:03.866Z,11.50
2023-05-17T13:24:34.139Z,11.40
2023-05-17T13:27:01.902Z,11.40
2023-05-17T13:29:38.863Z,11.40
2023-05-17T13:32:08.082Z,11.40
2023-05-17T13:34:36.932Z,11.40
2023-05-17T13:37:04.933Z,11.40
2023-05-17T13:39:32.146Z,11.40
2023-05-17T13:41:59.108Z,11.30
2023-05-17T13:44:26.633Z,11.30
2023-05-17T13:46:54.717Z,11.20
2023-05-17T13:49:21.586Z,11.30
2023-05-17T13:51:48.401Z,11.20
2023-05-17T13:54:15.436Z,11.30
2023-05-17T13:56:43.392Z,11.30
2023-05-17T13:59:10.368Z,11.20
2023-05-17T14:01:37.519Z,11.30
2023-05-17T14:04:04.660Z,11.30
2023-05-17T14:06:31.788Z,11.30
2023-05-17T14:09:00.758Z,11.30
2023-05-17T14:11:30.517Z,11.30
2023-05-17T14:13:57.308Z,11.30
2023-05-17T14:16:24.035Z,11.30
2023-05-17T14:18:51.140Z,11.30
2023-05-17T14:21:18.003Z,11.30
2023-05-17T14:23:44.796Z,11.30
2023-05-17T14:26:12.003Z,11.30
2023-05-17T14:28:39.163Z,11.30
2023-05-17T14:31:06.912Z,11.30
2023-05-17T14:33:35.484Z,11.30
2023-05-17T14:36:03.935Z,11.30
2023-05-17T14:38:31.232Z,11.30
2023-05-17T14:41:00.469Z,11.20
2023-05-17T14:43:27.633Z,11.30
2023-05-17T14:45:54.488Z,11.20
2023-05-17T14:48:21.428Z,11.10
2023-05-17T14:50:48.274Z,11.20
2023-05-17T14:53:17.305Z,11.10
2023-05-17T14:55:47.759Z,11.10
2023-05-17T14:58:14.863Z,11.10
2023-05-17T15:00:48.389Z,11.10
2023-05-17T15:03:21.693Z,11.10
2023-05-17T15:05:59.122Z,11.10
2023-05-17T15:08:26.700Z,11.10
2023-05-17T15:10:54.637Z,11.10
2023-05-17T15:13:21.599Z,11.00
2023-05-17T15:15:48.463Z,11.10
2023-05-17T15:18:15.689Z,11.00
2023-05-17T15:20:42.513Z,10.90
2023-05-17T15:23:09.726Z,11.00
2023-05-17T15:25:36.809Z,10.80
2023-05-17T15:28:10.457Z,10.80
2023-05-17T15:30:37.299Z,10.70
2023-05-17T15:33:06.727Z,10.70
2023-05-17T15:35:33.881Z,10.60
2023-05-17T15:38:06.135Z,10.60
2023-05-17T15:40:33.965Z,10.50
2023-05-17T15:43:02.144Z,10.50
2023-05-17T15:45:29.358Z,10.40
2023-05-17T15:47:57.250Z,10.40
2023-05-17T15:50:24.270Z,10.50
2023-05-17T15:52:51.227Z,10.50
2023-05-17T15:55:18.203Z,10.50
2023-05-17T15:57:45.129Z,10.40
2023-05-17T16:00:14.372Z,10.30
2023-05-17T16:02:43.176Z,10.30
2023-05-17T16:05:10.265Z,10.30
2023-05-17T16:07:37.284Z,10.20
2023-05-17T16:10:04.482Z,10.20
2023-05-17T16:12:32.704Z,10.20
2023-05-17T16:14:59.653Z,10.20
2023-05-17T16:17:27.362Z,10.20
2023-05-17T16:19:54.335Z,10.10
2023-05-17T16:22:21.725Z,10.20
2023-05-17T16:24:55.362Z,10.10
2023-05-17T16:27:22.354Z,10.00
2023-05-17T16:29:49.206Z,10.10
2023-05-17T16:32:16.287Z,10.00
2023-05-17T16:34:43.187Z,10.10
2023-05-17T16:37:11.083Z,10.10
2023-05-17T16:39:41.823Z,10.10
2023-05-17T16:42:09.972Z,10.00
2023-05-17T16:45:07.924Z,10.10
2023-05-17T16:47:40.198Z,10.10
2023-05-17T16:50:10.766Z,10.10
2023-05-17T16:52:37.571Z,10.10
2023-05-17T16:55:04.669Z,10.10
2023-05-17T16:57:31.994Z,10.10
2023-05-17T17:00:01.867Z,10.10
2023-05-17T17:02:28.920Z,10.10
2023-05-17T17:04:56.023Z,10.10
2023-05-17T17:07:22.924Z,10.10
2023-05-17T17:09:49.881Z,10.10
2023-05-17T17:12:24.106Z,10.20
2023-05-17T17:14:54.215Z,10.20
2023-05-17T17:17:21.490Z,10.20
2023-05-17T17:19:48.365Z,10.20
2023-05-17T17:22:16.325Z,10.20
2023-05-17T17:24:44.486Z,10.20
2023-05-17T17:27:13.928Z,10.20
2023-05-17T17:29:46.908Z,10.30
2023-05-17T17:32:13.801Z,10.30
2023-05-17T17:34:40.968Z,10.30
2023-05-17T17:37:08.068Z,10.30
2023-05-17T17:39:35.431Z,10.30
2023-05-17T17:42:02.505Z,10.30
2023-05-17T17:44:29.451Z,10.40
2023-05-17T17:46:56.377Z,10.40
2023-05-17T17:49:23.242Z,10.30
2023-05-17T17:51:51.436Z,10.40
2023-05-17T17:54:18.231Z,10.40
2023-05-17T17:56:47.813Z,10.40
2023-05-17T17:59:14.844Z,10.40
2023-05-17T18:01:43.527Z,10.40
2023-05-17T18:04:11.298Z,10.40
2023-05-17T18:06:40.055Z,10.50
2023-05-17T18:09:06.875Z,10.40
2023-05-17T18:11:33.980Z,10.40
2023-05-17T18:14:02.661Z,10.50
2023-05-17T18:16:29.640Z,10.40
2023-05-17T18:18:56.657Z,10.50
2023-05-17T18:21:23.694Z,10.40
2023-05-17T18:23:50.661Z,10.50
2023-05-17T18:26:17.541Z,10.50
2023-05-17T18:28:44.262Z,10.50
2023-05-17T18:31:11.359Z,10.50
2023-05-17T18:33:38.345Z,10.50
2023-05-17T18:36:05.654Z,10.50
2023-05-17T18:38:37.385Z,10.50
2023-05-17T18:41:04.233Z,10.60
2023-05-17T18:43:31.677Z,10.50
2023-05-17T18:45:58.397Z,10.50
2023-05-17T18:48:25.333Z,10.50
2023-05-17T18:50:52.161Z,10.50
2023-05-17T18:53:18.915Z,10.60
2023-05-17T18:55:45.714Z,10.50
2023-05-17T18:58:12.442Z,10.50
2023-05-17T19:00:39.346Z,10.60
2023-05-17T19:03:06.168Z,10.60
2023-05-17T19:05:33.004Z,10.50
2023-05-17T19:07:59.752Z,10.50
2023-05-17T19:10:26.540Z,10.50
2023-05-17T19:12:53.549Z,10.50
2023-05-17T19:15:20.797Z,10.60
2023-05-17T19:17:47.616Z,10.50
2023-05-17T19:20:14.504Z,10.60
2023-05-17T19:22:41.315Z,10.50
2023-05-17T19:25:10.742Z,10.50
2023-05-17T19:27:37.646Z,10.50
2023-05-17T19:30:05.110Z,10.50
2023-05-17T19:32:33.139Z,10.50
2023-05-17T19:35:01.216Z,10.50
2023-05-17T19:37:28.501Z,10.50
2023-05-17T19:39:55.703Z,10.60
2023-05-17T19:42:22.541Z,10.50
2023-05-17T19:44:49.429Z,10.50
2023-05-17T19:47:17.751Z,10.40
2023-05-17T19:49:44.786Z,10.50
2023-05-17T19:52:11.631Z,10.50
2023-05-17T19:54:38.962Z,10.50
2023-05-17T19:57:09.155Z,10.40
2023-05-17T19:59:40.156Z,10.50
2023-05-17T20:02:07.037Z,10.50
2023-05-17T20:04:35.560Z,10.50
2023-05-17T20:07:02.450Z,10.50
2023-05-17T20:09:30.431Z,10.60
2023-05-17T20:11:57.859Z,10.50
2023-05-17T20:14:24.885Z,10.50
2023-05-17T20:16:51.880Z,10.50
2023-05-17T20:19:18.805Z,10.50
2023-05-17T20:21:45.952Z,10.40
2023-05-17T20:24:12.875Z,10.40
2023-05-17T20:26:40.039Z,10.50
2023-05-17T20:29:08.055Z,10.40
2023-05-17T20:31:35.910Z,10.40
2023-05-17T20:34:03.889Z,10.40
2023-05-17T20:36:53.995Z,10.40
2023-05-17T21:54:29.976Z,10.10
2023-05-17T23:31:03.018Z,10.10
2023-05-17T23:42:24.546Z,10.00
